Olla, Louisiana
Current Conditions -  °F | °C
As of 2:53 PM on Sunday 21 Dec 2014 (Local Time) from KESF Reporting Station
Clear Clear  
Wind Chill: 55°   Ceiling: Unl
Heat Index: 55°   Visibility: 10mi
Dew Point: 47°   Wind: 7mph
Humidity: 74%   Direction: 160°SSE
Pressure: 30"   Gusts: NA
Location:  31.9°N, 92.24°W
Report Text: KESF 212053Z AUTO 16006KT 10SM CLR 13/08 A3000 RMK AO2 SLP159 T01280083 56031
Loading
Personal Weather Stations






























Interactive Weather Map New forecast layout! Learn more

10-Day Weather Forecast

Advertisements
Track Severe Weather on mobile